Geraldton Greenstone Regional Airport
CYGQ : now visible

Airfield :











YOU CAN JOIN US ON...

 
LOGIN :

Register | Disclaimer

   EN    FR    IT 

 









Legend :    VFR   Marginal VFR   IFR   Intensive IFR   Very Intensive IFR
Visi :
Ceiling :
>= 8 km
>= 3000ft
5 to 8 km
1000 to 3000 ft
1500m to 5 km
500 to 1000 ft
800 to 1500m
200 to 500 ft
< 800m
< 200 ft
Symbols :   Thunderstorms  Fog  Heavy snow  Heavy precipitations  Wind > 20 kt






- Airport Elevation : 1144 ft
- IATA code : YGQ


CYGQ - Geraldton Greenstone Regional

CURRENT METAR :
  • 221200Z 33003KT 280V020 12SM SCT006 BKN012 BKN043 BKN200 M01/M02 A3021 RMK ST3SC2SC2CI1 CI TR SLP250

EXPIRED METARs :
  • 221144Z 00000KT 10SM SCT004 BKN012 BKN044 M00/M01 A3020 RMK ST3SC3SC1 BR PRESRR SLP246
  • 221125Z 33003KT 300V010 3SM -SG BR BKN004 OVC009 M00/M01 A3017 RMK ST6SC2 SLP239
  • 221100Z 32005KT 5SM -SN BR OVC007 M00/M01 A3017 RMK ST8 SLP236
  • 221000Z 31004KT 270V340 15SM -SN OVC009 M00/M01 A3016 RMK SF8 SLP234

TAF TAF CYGQ
Valid from the 22 at 08:00 until the 22 at 20:00 UTC


220738Z 2208/2220 VRB03KT 2SM -SN BR OVC004
TEMPO 2208/2215 P6SM NSW SCT005 BKN015 OVC040
FM221500 30005KT P6SM SCT020
TEMPO 2215/2220 BKN020 RMK NXT FCST BY 221400Z
CZWG FIR / North America



MET'MAP, your aeronautical weather chart ! - Copyright ORBIFLY December 2007 - Disclaimer

ORBIFLY MET'MAP TEAM :

Programming & Development : Alexandra Zaïnal
Concept & original design : Baudouin d'Aumeries
Assistance for programming : Marc-Olivier Méhu
Technical & hardware support : Manuel Goepfert

Contact : metmap@orbifly.com




SOURCES & CREDITS :

   NOAA       Earth
Advisory